createdAt,value
2019-02-23T00:01:14.845Z,112.70
2019-02-23T00:03:48.491Z,103.50
2019-02-23T00:06:29.931Z,139.00
2019-02-23T00:08:57.339Z,124.13
2019-02-23T00:11:32.652Z,128.30
2019-02-23T00:14:07.153Z,118.60
2019-02-23T00:16:41.603Z,108.07
2019-02-23T00:19:24.368Z,122.40
2019-02-23T00:21:51.730Z,104.83
2019-02-23T00:24:25.661Z,131.70
2019-02-23T00:27:00.279Z,141.33
2019-02-23T00:29:34.216Z,138.63
2019-02-23T00:32:09.719Z,118.00
2019-02-23T00:34:43.754Z,109.43
2019-02-23T00:37:17.366Z,161.87
2019-02-23T00:39:52.053Z,148.17
2019-02-23T00:42:25.755Z,125.33
2019-02-23T00:44:59.862Z,119.77
2019-02-23T00:47:33.272Z,155.40
2019-02-23T00:50:07.451Z,155.40
2019-02-23T00:52:41.615Z,142.00
2019-02-23T00:55:17.629Z,123.87
2019-02-23T00:57:51.265Z,122.50
2019-02-23T01:00:25.353Z,123.90
2019-02-23T01:02:59.023Z,124.50
2019-02-23T01:05:32.583Z,109.53
2019-02-23T01:08:05.980Z,111.53
2019-02-23T01:10:40.500Z,128.17
2019-02-23T01:13:18.380Z,132.80
2019-02-23T01:15:51.833Z,152.20
2019-02-23T01:18:25.690Z,143.03
2019-02-23T01:21:01.057Z,120.73
2019-02-23T01:23:35.513Z,119.00
2019-02-23T01:26:10.872Z,127.00
2019-02-23T01:28:46.375Z,119.33
2019-02-23T01:31:20.873Z,125.73
2019-02-23T01:33:54.792Z,103.80
2019-02-23T01:36:29.803Z,104.50
2019-02-23T01:39:05.611Z,130.10
2019-02-23T01:41:41.518Z,109.83
2019-02-23T01:44:15.132Z,161.03
2019-02-23T01:46:48.227Z,105.73
2019-02-23T01:49:22.133Z,133.07
2019-02-23T01:51:55.530Z,117.57
2019-02-23T01:54:29.559Z,96.93
2019-02-23T01:57:03.849Z,127.07
2019-02-23T01:59:37.798Z,101.40
2019-02-23T02:02:12.244Z,131.43
2019-02-23T02:04:46.539Z,112.10
2019-02-23T02:07:20.290Z,124.10
2019-02-23T02:09:54.424Z,135.70
2019-02-23T02:12:28.516Z,97.67
2019-02-23T02:15:02.713Z,117.57
2019-02-23T02:17:38.018Z,88.97
2019-02-23T02:20:14.817Z,102.03
2019-02-23T02:22:49.088Z,106.83
2019-02-23T02:25:23.840Z,114.40
2019-02-23T02:27:57.469Z,98.93
2019-02-23T02:30:31.579Z,109.33
2019-02-23T02:33:05.808Z,96.23
2019-02-23T02:35:39.938Z,121.37
2019-02-23T02:38:13.638Z,107.70
2019-02-23T02:40:47.581Z,137.87
2019-02-23T02:43:22.650Z,146.27
2019-02-23T02:45:56.693Z,145.80
2019-02-23T02:48:30.903Z,120.00
2019-02-23T02:51:05.617Z,124.73
2019-02-23T02:53:40.469Z,123.10
2019-02-23T02:56:14.958Z,112.13
2019-02-23T02:58:49.592Z,123.40
2019-02-23T03:01:24.310Z,103.33
2019-02-23T03:03:58.609Z,111.33
2019-02-23T03:06:32.046Z,136.77
2019-02-23T03:09:07.882Z,137.57
2019-02-23T03:11:43.305Z,125.90
2019-02-23T03:14:18.442Z,112.37
2019-02-23T03:16:53.922Z,101.10
2019-02-23T03:19:28.797Z,106.50
2019-02-23T03:22:02.864Z,93.70
2019-02-23T03:24:36.526Z,111.40
2019-02-23T03:27:12.107Z,164.37
2019-02-23T03:29:45.518Z,128.50
2019-02-23T03:32:18.976Z,113.07
2019-02-23T03:34:53.304Z,119.10
2019-02-23T03:37:26.847Z,125.33
2019-02-23T03:40:00.366Z,96.27
2019-02-23T03:42:34.972Z,110.83
2019-02-23T03:45:08.819Z,139.23
2019-02-23T03:47:42.854Z,114.63
2019-02-23T03:50:17.779Z,170.53
2019-02-23T03:52:52.955Z,131.53
2019-02-23T03:55:26.977Z,142.07
2019-02-23T03:58:00.289Z,96.87
2019-02-23T04:00:33.802Z,105.43
2019-02-23T04:03:08.711Z,90.37
2019-02-23T04:05:43.228Z,103.20
2019-02-23T04:08:17.361Z,110.83
2019-02-23T04:10:50.985Z,94.33
2019-02-23T04:13:25.666Z,77.93
2019-02-23T04:16:00.271Z,70.47
2019-02-23T04:18:33.894Z,75.17
2019-02-23T04:21:08.593Z,74.63
2019-02-23T04:23:42.674Z,80.40
2019-02-23T04:26:19.664Z,82.00
2019-02-23T04:28:53.857Z,76.87
2019-02-23T04:31:28.756Z,69.60
2019-02-23T04:34:03.289Z,98.87
2019-02-23T04:36:36.890Z,73.63
2019-02-23T04:39:11.614Z,101.00
2019-02-23T04:41:46.011Z,69.67
2019-02-23T04:44:19.566Z,82.23
2019-02-23T04:46:54.094Z,71.80
2019-02-23T04:49:30.992Z,86.97
2019-02-23T04:52:04.529Z,84.80
2019-02-23T04:54:42.756Z,67.13
2019-02-23T04:57:15.935Z,89.67
2019-02-23T04:59:50.141Z,93.90
2019-02-23T05:02:24.610Z,81.97
2019-02-23T05:04:58.185Z,90.47
2019-02-23T05:07:33.205Z,84.77
2019-02-23T05:10:07.397Z,68.33
2019-02-23T05:12:41.265Z,80.13
2019-02-23T05:15:15.996Z,69.13
2019-02-23T05:17:49.766Z,98.67
2019-02-23T05:20:23.340Z,72.83
2019-02-23T05:22:57.169Z,73.37
2019-02-23T05:25:31.625Z,78.33
2019-02-23T05:28:05.133Z,87.07
2019-02-23T05:30:38.737Z,74.77
2019-02-23T05:33:13.801Z,79.30
2019-02-23T05:35:48.424Z,75.53
2019-02-23T05:38:24.072Z,84.73
2019-02-23T05:40:58.019Z,84.43
2019-02-23T05:43:34.716Z,76.17
2019-02-23T05:46:07.933Z,78.53
2019-02-23T05:48:44.588Z,95.53
2019-02-23T05:51:18.798Z,79.07
2019-02-23T05:53:53.551Z,74.87
2019-02-23T05:56:29.727Z,67.43
2019-02-23T05:59:03.605Z,74.30
2019-02-23T06:01:38.363Z,77.67
2019-02-23T06:04:12.561Z,68.63
2019-02-23T06:06:46.881Z,68.03
2019-02-23T06:09:20.141Z,72.30
2019-02-23T06:11:56.764Z,69.57
2019-02-23T06:14:31.596Z,72.27
2019-02-23T06:17:05.164Z,73.87
2019-02-23T06:19:39.943Z,66.13
2019-02-23T06:22:14.213Z,74.80
2019-02-23T06:24:47.737Z,79.90
2019-02-23T06:27:25.198Z,88.90
2019-02-23T06:30:01.490Z,83.73
2019-02-23T06:32:39.127Z,82.97
2019-02-23T06:35:12.286Z,101.20
2019-02-23T06:37:47.839Z,74.67
2019-02-23T06:40:20.792Z,70.50
2019-02-23T06:42:54.018Z,81.60
2019-02-23T06:45:26.742Z,82.07
2019-02-23T06:47:59.498Z,80.27
2019-02-23T06:50:31.528Z,84.50
2019-02-23T06:53:05.464Z,92.40
2019-02-23T06:55:39.001Z,91.53
2019-02-23T06:58:11.381Z,98.97
2019-02-23T07:00:43.773Z,93.83
2019-02-23T07:03:18.188Z,95.43
2019-02-23T07:05:50.954Z,99.37
2019-02-23T07:08:22.990Z,106.43
2019-02-23T07:11:00.871Z,101.30
2019-02-23T07:13:36.625Z,100.00
2019-02-23T07:16:10.032Z,96.50
2019-02-23T07:18:44.148Z,87.23
2019-02-23T07:21:18.141Z,85.27
2019-02-23T07:23:51.631Z,105.70
2019-02-23T07:26:25.956Z,97.97
2019-02-23T07:28:59.483Z,95.23
2019-02-23T07:31:33.357Z,99.60
2019-02-23T07:34:07.894Z,111.10
2019-02-23T07:36:42.055Z,102.33
2019-02-23T07:39:15.918Z,105.37
2019-02-23T07:41:48.856Z,79.77
2019-02-23T07:44:24.686Z,92.33
2019-02-23T07:46:58.882Z,91.57
2019-02-23T07:49:33.712Z,96.60
2019-02-23T07:52:07.184Z,104.47
2019-02-23T07:54:40.420Z,98.83
2019-02-23T07:57:13.136Z,88.87
2019-02-23T07:59:45.063Z,91.97
2019-02-23T08:02:17.833Z,95.83
2019-02-23T08:04:50.496Z,104.33
2019-02-23T08:07:24.160Z,79.07
2019-02-23T08:09:57.730Z,74.23
2019-02-23T08:12:31.583Z,70.20
2019-02-23T08:15:03.842Z,68.53
2019-02-23T08:17:38.071Z,57.13
2019-02-23T08:20:10.394Z,65.83
2019-02-23T08:22:43.234Z,51.80
2019-02-23T08:25:20.224Z,54.63
2019-02-23T08:27:56.220Z,51.20
2019-02-23T08:30:32.294Z,43.90
2019-02-23T08:33:07.398Z,43.50
2019-02-23T08:35:42.553Z,41.10
2019-02-23T08:38:17.322Z,39.53
2019-02-23T08:40:53.172Z,38.00
2019-02-23T08:43:29.493Z,30.27
2019-02-23T08:46:04.336Z,29.67
2019-02-23T08:48:39.979Z,31.70
2019-02-23T08:51:16.133Z,29.77
2019-02-23T08:53:51.920Z,27.20
2019-02-23T08:56:30.940Z,27.30
2019-02-23T08:59:04.684Z,23.37
2019-02-23T09:01:39.399Z,25.47
2019-02-23T09:04:25.623Z,23.40
2019-02-23T09:06:58.888Z,25.03
2019-02-23T09:09:32.451Z,23.90
2019-02-23T09:12:06.658Z,22.37
2019-02-23T09:14:40.455Z,23.13
2019-02-23T09:17:13.778Z,24.77
2019-02-23T09:19:47.985Z,21.30
2019-02-23T09:22:21.778Z,21.40
2019-02-23T09:24:56.426Z,23.90
2019-02-23T09:27:30.358Z,20.83
2019-02-23T09:30:04.598Z,19.43
2019-02-23T09:32:40.009Z,21.53
2019-02-23T09:35:14.957Z,21.70
2019-02-23T09:37:51.249Z,21.40
2019-02-23T09:40:24.820Z,19.87
2019-02-23T09:43:00.051Z,19.90
2019-02-23T09:45:35.367Z,20.03
2019-02-23T09:48:09.294Z,20.13
2019-02-23T09:50:42.975Z,18.23
2019-02-23T09:53:18.795Z,17.30
2019-02-23T09:55:53.510Z,17.23
2019-02-23T09:58:31.865Z,18.07
2019-02-23T10:01:09.578Z,18.57
2019-02-23T10:03:44.530Z,19.67
2019-02-23T10:06:18.172Z,18.20
2019-02-23T10:08:51.636Z,20.27
2019-02-23T10:11:24.929Z,18.00
2019-02-23T10:13:59.343Z,17.03
2019-02-23T10:16:34.525Z,18.20
2019-02-23T10:19:08.770Z,16.67
2019-02-23T10:21:43.305Z,17.70
2019-02-23T10:24:17.855Z,15.77
2019-02-23T10:26:52.898Z,16.63
2019-02-23T10:29:26.948Z,16.17
2019-02-23T10:32:01.205Z,16.13
2019-02-23T10:34:35.850Z,15.83
2019-02-23T10:37:10.029Z,15.60
2019-02-23T10:39:43.288Z,17.03
2019-02-23T10:42:17.091Z,16.67
2019-02-23T10:44:53.353Z,23.03
2019-02-23T10:47:27.681Z,21.90
2019-02-23T10:50:01.645Z,19.13
2019-02-23T10:52:35.778Z,13.93
2019-02-23T10:55:10.725Z,16.53
2019-02-23T10:57:44.901Z,13.87
2019-02-23T11:00:21.889Z,13.97
2019-02-23T11:02:53.400Z,14.23
2019-02-23T11:05:24.335Z,12.33
2019-02-23T11:07:55.327Z,12.60
2019-02-23T11:10:26.675Z,11.80
2019-02-23T11:12:58.091Z,13.10
2019-02-23T11:15:29.728Z,13.70
2019-02-23T11:18:03.010Z,13.10
2019-02-23T11:20:36.052Z,13.60
2019-02-23T11:23:08.836Z,14.10
2019-02-23T11:25:40.571Z,12.43
2019-02-23T11:28:12.353Z,13.67
2019-02-23T11:30:43.723Z,11.73
2019-02-23T11:33:14.912Z,13.90
2019-02-23T11:35:46.420Z,10.40
2019-02-23T11:38:17.835Z,10.58
2019-02-23T11:40:49.385Z,11.57
2019-02-23T11:43:20.940Z,10.97
2019-02-23T11:45:52.375Z,10.90
2019-02-23T11:48:23.241Z,10.10
2019-02-23T11:50:54.592Z,10.00
2019-02-23T11:53:25.737Z,10.60
2019-02-23T11:55:56.777Z,8.70
2019-02-23T11:58:27.795Z,10.27
2019-02-23T12:00:58.737Z,9.90
2019-02-23T12:03:31.327Z,9.33
2019-02-23T12:06:04.286Z,9.50
2019-02-23T12:08:35.364Z,8.53
2019-02-23T12:11:06.984Z,8.37
2019-02-23T12:13:38.086Z,8.67
2019-02-23T12:16:14.984Z,8.73
2019-02-23T12:18:46.377Z,8.80
2019-02-23T12:21:17.534Z,8.53
2019-02-23T12:23:48.960Z,9.40
2019-02-23T12:26:19.822Z,8.23
2019-02-23T12:28:51.003Z,11.17
2019-02-23T12:31:22.381Z,9.53
2019-02-23T12:33:54.928Z,9.47
2019-02-23T12:36:25.657Z,8.83
2019-02-23T12:38:57.365Z,8.80
2019-02-23T12:41:28.739Z,8.20
2019-02-23T12:44:00.801Z,7.03
2019-02-23T12:46:32.029Z,7.50
2019-02-23T12:49:03.467Z,8.03
2019-02-23T12:51:34.585Z,7.63
2019-02-23T12:54:16.355Z,8.87
2019-02-23T12:56:38.388Z,7.60
2019-02-23T12:59:09.877Z,8.13
2019-02-23T13:01:40.735Z,8.80
2019-02-23T13:04:12.167Z,7.30
2019-02-23T13:06:43.295Z,7.33
2019-02-23T13:09:17.390Z,7.23
2019-02-23T13:11:59.354Z,7.43
2019-02-23T13:14:46.128Z,7.93
2019-02-23T13:18:06.343Z,8.07
2019-02-23T13:21:15.373Z,8.37
2019-02-23T13:24:13.460Z,9.17
2019-02-23T13:27:12.871Z,7.07
2019-02-23T13:30:15.756Z,7.53
2019-02-23T13:33:42.960Z,7.60
2019-02-23T13:36:36.692Z,8.03
2019-02-23T13:40:04.156Z,6.53
2019-02-23T13:43:21.945Z,8.37
2019-02-23T13:46:26.880Z,6.57
2019-02-23T13:49:29.091Z,6.60
2019-02-23T13:52:27.812Z,6.33
2019-02-23T13:55:22.949Z,7.43
2019-02-23T13:58:08.881Z,7.07
2019-02-23T14:01:22.665Z,6.60
2019-02-23T14:04:35.214Z,6.23
2019-02-23T14:07:55.739Z,7.67
2019-02-23T14:10:39.956Z,7.00
2019-02-23T14:13:41.930Z,6.97
2019-02-23T14:16:36.002Z,6.63
2019-02-23T14:19:16.709Z,8.37
2019-02-23T14:22:15.177Z,8.30
2019-02-23T14:25:14.783Z,6.30
2019-02-23T14:28:40.364Z,8.30
2019-02-23T14:31:41.318Z,8.23
2019-02-23T14:34:58.614Z,6.77
2019-02-23T14:38:15.986Z,7.83
2019-02-23T14:40:58.426Z,7.03
2019-02-23T14:44:00.727Z,8.57
2019-02-23T14:47:13.121Z,7.03
2019-02-23T14:50:16.037Z,6.80
2019-02-23T14:53:23.769Z,6.62
2019-02-23T14:56:32.684Z,7.20
2019-02-23T14:59:38.053Z,6.97
2019-02-23T15:02:56.337Z,8.20
2019-02-23T15:06:12.049Z,8.03
2019-02-23T15:09:07.849Z,7.55
2019-02-23T15:12:13.422Z,7.90
2019-02-23T15:15:20.876Z,7.10
2019-02-23T15:18:25.134Z,7.27
2019-02-23T15:21:10.252Z,7.13
2019-02-23T15:24:35.174Z,6.83
2019-02-23T15:27:57.200Z,6.77
2019-02-23T15:30:56.029Z,7.20
2019-02-23T15:34:27.068Z,7.50
2019-02-23T15:37:13.406Z,7.50
2019-02-23T15:40:16.533Z,7.70
2019-02-23T15:43:09.803Z,8.67
2019-02-23T15:46:20.754Z,8.40
2019-02-23T15:49:31.860Z,8.20
2019-02-23T15:52:08.718Z,7.43
2019-02-23T15:54:39.744Z,7.10
2019-02-23T15:57:12.002Z,8.03
2019-02-23T15:59:44.533Z,6.83
2019-02-23T16:02:15.035Z,8.23
2019-02-23T16:04:47.830Z,6.63
2019-02-23T16:07:19.024Z,9.23
2019-02-23T16:09:50.240Z,6.37
2019-02-23T16:12:21.113Z,7.40
2019-02-23T16:14:52.437Z,6.50
2019-02-23T16:17:24.079Z,7.37
2019-02-23T16:19:56.177Z,8.23
2019-02-23T16:22:29.251Z,8.08
2019-02-23T16:25:02.518Z,7.27
2019-02-23T16:27:42.220Z,7.50
2019-02-23T16:30:15.758Z,7.33
2019-02-23T16:32:48.751Z,7.90
2019-02-23T16:35:22.799Z,7.20
2019-02-23T16:38:15.486Z,7.57
2019-02-23T16:40:44.550Z,7.67
2019-02-23T16:43:15.934Z,8.17
2019-02-23T16:46:07.629Z,7.77
2019-02-23T16:48:39.367Z,6.07
2019-02-23T16:51:11.060Z,7.30
2019-02-23T16:53:43.047Z,8.43
2019-02-23T16:56:14.402Z,7.13
2019-02-23T16:58:46.149Z,8.97
2019-02-23T17:01:17.444Z,6.83
2019-02-23T17:03:49.243Z,8.63
2019-02-23T17:06:20.693Z,7.53
2019-02-23T17:08:55.092Z,8.87
2019-02-23T17:11:26.182Z,7.60
2019-02-23T17:13:58.705Z,7.50
2019-02-23T17:16:31.859Z,7.40
2019-02-23T17:19:03.482Z,7.03
2019-02-23T17:21:34.780Z,8.07
2019-02-23T17:24:10.531Z,7.60
2019-02-23T17:26:42.308Z,8.00
2019-02-23T17:29:15.508Z,7.30
2019-02-23T17:31:46.916Z,7.53
2019-02-23T17:34:17.609Z,9.57
2019-02-23T17:36:49.979Z,12.67
2019-02-23T17:39:21.984Z,9.83
2019-02-23T17:41:54.295Z,13.70
2019-02-23T17:44:26.510Z,9.47
2019-02-23T17:47:00.695Z,9.47
2019-02-23T17:49:37.182Z,10.63
2019-02-23T17:52:08.833Z,8.57
2019-02-23T17:54:41.357Z,7.17
2019-02-23T17:57:13.822Z,8.43
2019-02-23T17:59:47.295Z,10.90
2019-02-23T18:02:20.357Z,8.43
2019-02-23T18:04:53.054Z,8.73
2019-02-23T18:07:28.058Z,8.47
2019-02-23T18:10:02.288Z,7.10
2019-02-23T18:12:37.426Z,6.77
2019-02-23T18:15:13.330Z,6.97
2019-02-23T18:17:47.310Z,7.57
2019-02-23T18:20:21.577Z,7.73
2019-02-23T18:22:55.307Z,6.43
2019-02-23T18:25:29.451Z,7.57
2019-02-23T18:28:03.943Z,9.83
2019-02-23T18:30:39.137Z,6.30
2019-02-23T18:33:11.766Z,7.83
2019-02-23T18:35:44.359Z,9.03
2019-02-23T18:38:19.756Z,8.40
2019-02-23T18:40:52.652Z,7.63
2019-02-23T18:43:25.416Z,7.83
2019-02-23T18:45:58.273Z,9.50
2019-02-23T18:48:30.997Z,10.40
2019-02-23T18:51:03.944Z,8.90
2019-02-23T18:53:37.760Z,7.70
2019-02-23T18:56:10.350Z,10.57
2019-02-23T18:58:43.212Z,12.30
2019-02-23T19:01:16.213Z,10.10
2019-02-23T19:03:48.769Z,9.00
2019-02-23T19:06:21.693Z,6.63
2019-02-23T19:08:56.124Z,9.77
2019-02-23T19:11:29.831Z,8.33
2019-02-23T19:14:04.118Z,10.10
2019-02-23T19:16:37.298Z,9.53
2019-02-23T19:19:12.478Z,9.47
2019-02-23T19:21:47.409Z,11.70
2019-02-23T19:24:20.256Z,13.20
2019-02-23T19:26:53.474Z,18.03
2019-02-23T19:29:26.950Z,12.30
2019-02-23T19:31:59.916Z,11.57
2019-02-23T19:34:33.565Z,11.43
2019-02-23T19:37:07.064Z,9.90
2019-02-23T19:39:42.795Z,9.37
2019-02-23T19:42:19.463Z,12.87
2019-02-23T19:44:52.125Z,9.20
2019-02-23T19:47:28.183Z,10.07
2019-02-23T19:50:06.568Z,9.63
2019-02-23T19:52:42.999Z,13.27
2019-02-23T19:55:16.719Z,13.03
2019-02-23T19:57:50.583Z,17.50
2019-02-23T20:00:25.614Z,14.47
2019-02-23T20:02:58.650Z,14.13
2019-02-23T20:05:31.879Z,12.37
2019-02-23T20:08:05.811Z,15.37
2019-02-23T20:10:40.870Z,12.23
2019-02-23T20:13:13.710Z,12.03
2019-02-23T20:15:47.046Z,12.43
2019-02-23T20:18:19.686Z,12.17
2019-02-23T20:20:52.569Z,13.37
2019-02-23T20:23:26.509Z,13.07
2019-02-23T20:26:00.282Z,10.43
2019-02-23T20:28:33.814Z,11.27
2019-02-23T20:31:06.514Z,12.77
2019-02-23T20:33:39.547Z,12.50
2019-02-23T20:36:12.966Z,12.57
2019-02-23T20:38:46.850Z,13.77
2019-02-23T20:41:20.420Z,12.73
2019-02-23T20:43:55.276Z,13.07
2019-02-23T20:46:28.384Z,12.50
2019-02-23T20:49:01.327Z,11.10
2019-02-23T20:51:37.393Z,11.33
2019-02-23T20:54:10.255Z,12.60
2019-02-23T20:56:44.788Z,10.53
2019-02-23T20:59:18.717Z,12.00
2019-02-23T21:01:53.509Z,11.87
2019-02-23T21:04:30.410Z,12.97
2019-02-23T21:07:03.927Z,12.80
2019-02-23T21:09:42.083Z,10.43
2019-02-23T21:12:16.887Z,12.40
2019-02-23T21:14:52.991Z,12.10
2019-02-23T21:17:25.789Z,12.00
2019-02-23T21:19:59.054Z,13.83
2019-02-23T21:22:31.439Z,11.53
2019-02-23T21:25:03.443Z,13.17
2019-02-23T21:27:36.061Z,11.80
2019-02-23T21:30:08.506Z,11.23
2019-02-23T21:32:43.914Z,11.50
2019-02-23T21:35:17.055Z,13.90
2019-02-23T21:37:51.043Z,13.20
2019-02-23T21:40:27.111Z,13.23
2019-02-23T21:42:59.580Z,15.90
2019-02-23T21:45:33.073Z,12.07
2019-02-23T21:48:06.608Z,12.17
2019-02-23T21:50:38.712Z,14.83
2019-02-23T21:53:11.775Z,10.90
2019-02-23T21:55:45.174Z,12.03
2019-02-23T21:58:20.195Z,14.03
2019-02-23T22:00:54.119Z,10.77
2019-02-23T22:03:26.824Z,12.90
2019-02-23T22:06:04.660Z,11.23
2019-02-23T22:08:37.176Z,12.50
2019-02-23T22:11:09.820Z,12.97
2019-02-23T22:13:42.546Z,12.47
2019-02-23T22:16:15.597Z,13.80
2019-02-23T22:18:50.534Z,12.00
2019-02-23T22:21:22.632Z,15.93
2019-02-23T22:23:55.146Z,13.63
2019-02-23T22:26:28.710Z,11.97
2019-02-23T22:29:01.649Z,13.87
2019-02-23T22:31:34.096Z,14.13
2019-02-23T22:34:06.677Z,14.63
2019-02-23T22:36:39.802Z,11.77
2019-02-23T22:39:12.065Z,14.60
2019-02-23T22:41:49.617Z,15.17
2019-02-23T22:44:22.491Z,13.17
2019-02-23T22:46:54.702Z,12.90
2019-02-23T22:49:26.714Z,13.43
2019-02-23T22:52:00.975Z,13.20
2019-02-23T22:54:33.085Z,12.43
2019-02-23T22:57:05.495Z,11.70
2019-02-23T22:59:38.920Z,14.20
2019-02-23T23:02:11.857Z,12.77
2019-02-23T23:04:44.290Z,13.83
2019-02-23T23:07:18.119Z,13.67
2019-02-23T23:09:50.580Z,12.43
2019-02-23T23:12:26.329Z,12.00
2019-02-23T23:14:58.869Z,12.20
2019-02-23T23:17:31.027Z,12.30
2019-02-23T23:20:03.786Z,12.47
2019-02-23T23:22:38.458Z,11.93
2019-02-23T23:25:12.754Z,13.23
2019-02-23T23:27:49.211Z,13.93
2019-02-23T23:30:21.293Z,15.20
2019-02-23T23:32:55.394Z,13.53
2019-02-23T23:35:29.480Z,13.37
2019-02-23T23:38:05.396Z,13.17
2019-02-23T23:40:40.402Z,12.60
2019-02-23T23:43:15.189Z,14.27
2019-02-23T23:45:49.089Z,14.73
2019-02-23T23:48:25.254Z,11.80
2019-02-23T23:51:00.941Z,13.73
2019-02-23T23:53:34.934Z,12.00
2019-02-23T23:56:09.339Z,11.23
2019-02-23T23:58:43.367Z,12.23
